sensor_id;sensor_type;location;lat;lon;timestamp;P1;durP1;ratioP1;P2;durP2;ratioP2
19384;SDS011;9828;54.122;17.974;2023-07-20T00:04:06;2.03;;;1.70;;
19384;SDS011;9828;54.122;17.974;2023-07-20T00:09:28;2.83;;;1.90;;
19384;SDS011;9828;54.122;17.974;2023-07-20T00:14:49;2.55;;;2.17;;
19384;SDS011;9828;54.122;17.974;2023-07-20T00:20:14;4.90;;;2.53;;
19384;SDS011;9828;54.122;17.974;2023-07-20T00:25:35;4.35;;;2.47;;
19384;SDS011;9828;54.122;17.974;2023-07-20T00:30:58;6.45;;;2.45;;
19384;SDS011;9828;54.122;17.974;2023-07-20T00:36:20;3.80;;;2.42;;
19384;SDS011;9828;54.122;17.974;2023-07-20T00:41:42;3.30;;;2.22;;
19384;SDS011;9828;54.122;17.974;2023-07-20T00:47:03;5.35;;;2.50;;
19384;SDS011;9828;54.122;17.974;2023-07-20T00:52:26;3.15;;;2.20;;
19384;SDS011;9828;54.122;17.974;2023-07-20T00:57:49;5.55;;;2.55;;
19384;SDS011;9828;54.122;17.974;2023-07-20T01:03:11;2.95;;;1.88;;
19384;SDS011;9828;54.122;17.974;2023-07-20T01:08:33;3.83;;;2.53;;
19384;SDS011;9828;54.122;17.974;2023-07-20T01:13:58;3.30;;;2.25;;
19384;SDS011;9828;54.122;17.974;2023-07-20T01:19:20;4.22;;;2.50;;
19384;SDS011;9828;54.122;17.974;2023-07-20T01:36:35;4.88;;;2.88;;
19384;SDS011;9828;54.122;17.974;2023-07-20T01:41:58;7.15;;;3.63;;
19384;SDS011;9828;54.122;17.974;2023-07-20T01:47:20;5.47;;;2.80;;
19384;SDS011;9828;54.122;17.974;2023-07-20T01:52:42;2.25;;;1.90;;
19384;SDS011;9828;54.122;17.974;2023-07-20T01:58:04;2.38;;;2.00;;
19384;SDS011;9828;54.122;17.974;2023-07-20T02:03:26;2.72;;;1.70;;
19384;SDS011;9828;54.122;17.974;2023-07-20T02:08:47;2.53;;;1.48;;
19384;SDS011;9828;54.122;17.974;2023-07-20T02:14:09;4.13;;;1.83;;
19384;SDS011;9828;54.122;17.974;2023-07-20T02:19:30;3.03;;;1.77;;
19384;SDS011;9828;54.122;17.974;2023-07-20T02:24:51;3.70;;;2.95;;
19384;SDS011;9828;54.122;17.974;2023-07-20T02:30:14;5.22;;;3.20;;
19384;SDS011;9828;54.122;17.974;2023-07-20T02:35:36;3.95;;;2.83;;
19384;SDS011;9828;54.122;17.974;2023-07-20T02:40:57;4.07;;;2.55;;
19384;SDS011;9828;54.122;17.974;2023-07-20T02:46:18;6.85;;;3.80;;
19384;SDS011;9828;54.122;17.974;2023-07-20T02:51:40;6.72;;;3.40;;
19384;SDS011;9828;54.122;17.974;2023-07-20T02:57:01;3.72;;;2.83;;
19384;SDS011;9828;54.122;17.974;2023-07-20T03:02:23;4.22;;;2.85;;
19384;SDS011;9828;54.122;17.974;2023-07-20T03:07:44;4.60;;;2.60;;
19384;SDS011;9828;54.122;17.974;2023-07-20T03:13:06;2.85;;;2.40;;
19384;SDS011;9828;54.122;17.974;2023-07-20T03:18:27;3.03;;;2.10;;
19384;SDS011;9828;54.122;17.974;2023-07-20T03:23:49;2.60;;;1.80;;
19384;SDS011;9828;54.122;17.974;2023-07-20T03:29:10;3.47;;;1.70;;
19384;SDS011;9828;54.122;17.974;2023-07-20T03:34:31;3.55;;;1.88;;
19384;SDS011;9828;54.122;17.974;2023-07-20T03:39:53;1.67;;;1.42;;
19384;SDS011;9828;54.122;17.974;2023-07-20T03:45:14;1.88;;;1.63;;
19384;SDS011;9828;54.122;17.974;2023-07-20T03:50:35;4.30;;;2.10;;
19384;SDS011;9828;54.122;17.974;2023-07-20T03:55:57;1.83;;;1.60;;
19384;SDS011;9828;54.122;17.974;2023-07-20T04:01:18;4.28;;;1.55;;
19384;SDS011;9828;54.122;17.974;2023-07-20T04:06:39;2.42;;;1.75;;
19384;SDS011;9828;54.122;17.974;2023-07-20T04:12:01;2.03;;;1.63;;
19384;SDS011;9828;54.122;17.974;2023-07-20T04:17:22;4.03;;;1.85;;
19384;SDS011;9828;54.122;17.974;2023-07-20T04:22:43;1.92;;;1.65;;
19384;SDS011;9828;54.122;17.974;2023-07-20T04:28:07;1.55;;;1.38;;
19384;SDS011;9828;54.122;17.974;2023-07-20T04:33:36;1.88;;;1.60;;
19384;SDS011;9828;54.122;17.974;2023-07-20T04:38:58;2.08;;;1.65;;
19384;SDS011;9828;54.122;17.974;2023-07-20T04:44:26;2.17;;;1.52;;
19384;SDS011;9828;54.122;17.974;2023-07-20T04:49:47;4.35;;;1.70;;
19384;SDS011;9828;54.122;17.974;2023-07-20T04:55:09;1.20;;;1.10;;
19384;SDS011;9828;54.122;17.974;2023-07-20T05:00:34;2.50;;;1.55;;
19384;SDS011;9828;54.122;17.974;2023-07-20T05:05:56;2.17;;;1.58;;
19384;SDS011;9828;54.122;17.974;2023-07-20T05:11:18;4.45;;;2.00;;
19384;SDS011;9828;54.122;17.974;2023-07-20T05:16:40;3.15;;;1.50;;
19384;SDS011;9828;54.122;17.974;2023-07-20T05:22:02;4.40;;;1.60;;
19384;SDS011;9828;54.122;17.974;2023-07-20T05:27:25;2.40;;;1.08;;
19384;SDS011;9828;54.122;17.974;2023-07-20T05:32:46;4.35;;;1.95;;
19384;SDS011;9828;54.122;17.974;2023-07-20T05:38:11;4.35;;;2.17;;
19384;SDS011;9828;54.122;17.974;2023-07-20T05:43:32;4.43;;;1.60;;
19384;SDS011;9828;54.122;17.974;2023-07-20T05:48:54;3.60;;;1.70;;
19384;SDS011;9828;54.122;17.974;2023-07-20T05:54:15;2.75;;;2.03;;
19384;SDS011;9828;54.122;17.974;2023-07-20T05:59:36;2.90;;;1.92;;
19384;SDS011;9828;54.122;17.974;2023-07-20T06:04:58;2.70;;;1.80;;
19384;SDS011;9828;54.122;17.974;2023-07-20T06:10:20;2.50;;;1.65;;
19384;SDS011;9828;54.122;17.974;2023-07-20T06:15:41;2.55;;;1.45;;
19384;SDS011;9828;54.122;17.974;2023-07-20T06:21:03;5.40;;;1.67;;
19384;SDS011;9828;54.122;17.974;2023-07-20T06:26:26;2.50;;;1.63;;
19384;SDS011;9828;54.122;17.974;2023-07-20T06:31:50;4.28;;;1.65;;
19384;SDS011;9828;54.122;17.974;2023-07-20T06:37:12;4.00;;;2.08;;
19384;SDS011;9828;54.122;17.974;2023-07-20T06:42:34;2.67;;;1.80;;
19384;SDS011;9828;54.122;17.974;2023-07-20T06:47:58;3.47;;;1.48;;
19384;SDS011;9828;54.122;17.974;2023-07-20T06:53:20;3.30;;;1.48;;
19384;SDS011;9828;54.122;17.974;2023-07-20T06:58:41;3.38;;;1.23;;
19384;SDS011;9828;54.122;17.974;2023-07-20T07:04:03;1.98;;;1.10;;
19384;SDS011;9828;54.122;17.974;2023-07-20T07:09:26;1.70;;;1.30;;
19384;SDS011;9828;54.122;17.974;2023-07-20T07:14:47;1.52;;;1.10;;
19384;SDS011;9828;54.122;17.974;2023-07-20T07:20:08;1.13;;;0.88;;
19384;SDS011;9828;54.122;17.974;2023-07-20T07:25:30;5.03;;;1.33;;
19384;SDS011;9828;54.122;17.974;2023-07-20T07:30:54;2.20;;;0.93;;
19384;SDS011;9828;54.122;17.974;2023-07-20T07:36:17;1.75;;;1.15;;
19384;SDS011;9828;54.122;17.974;2023-07-20T07:41:38;0.88;;;0.88;;
19384;SDS011;9828;54.122;17.974;2023-07-20T07:47:00;1.88;;;1.10;;
19384;SDS011;9828;54.122;17.974;2023-07-20T07:52:21;1.08;;;0.90;;
19384;SDS011;9828;54.122;17.974;2023-07-20T07:57:43;1.63;;;1.00;;
19384;SDS011;9828;54.122;17.974;2023-07-20T08:03:08;3.30;;;1.30;;
19384;SDS011;9828;54.122;17.974;2023-07-20T08:08:29;2.22;;;0.98;;
19384;SDS011;9828;54.122;17.974;2023-07-20T08:13:52;2.83;;;1.52;;
19384;SDS011;9828;54.122;17.974;2023-07-20T08:19:13;2.67;;;0.93;;
19384;SDS011;9828;54.122;17.974;2023-07-20T08:24:34;3.53;;;1.00;;
19384;SDS011;9828;54.122;17.974;2023-07-20T08:30:00;1.10;;;0.60;;
19384;SDS011;9828;54.122;17.974;2023-07-20T08:35:21;2.63;;;0.82;;
19384;SDS011;9828;54.122;17.974;2023-07-20T08:40:44;3.28;;;1.00;;
19384;SDS011;9828;54.122;17.974;2023-07-20T08:46:06;2.40;;;0.90;;
19384;SDS011;9828;54.122;17.974;2023-07-20T08:51:28;1.90;;;1.00;;
19384;SDS011;9828;54.122;17.974;2023-07-20T08:56:50;1.90;;;1.10;;
19384;SDS011;9828;54.122;17.974;2023-07-20T09:02:13;1.00;;;0.70;;
19384;SDS011;9828;54.122;17.974;2023-07-20T09:07:39;1.77;;;0.60;;
19384;SDS011;9828;54.122;17.974;2023-07-20T09:13:01;0.90;;;0.50;;
19384;SDS011;9828;54.122;17.974;2023-07-20T09:18:27;1.17;;;0.70;;
19384;SDS011;9828;54.122;17.974;2023-07-20T09:23:50;0.70;;;0.65;;
19384;SDS011;9828;54.122;17.974;2023-07-20T09:29:18;2.67;;;0.63;;
19384;SDS011;9828;54.122;17.974;2023-07-20T09:34:40;1.70;;;0.70;;
19384;SDS011;9828;54.122;17.974;2023-07-20T09:40:01;0.77;;;0.60;;
19384;SDS011;9828;54.122;17.974;2023-07-20T09:45:30;0.95;;;0.50;;
19384;SDS011;9828;54.122;17.974;2023-07-20T09:50:57;2.00;;;0.82;;
19384;SDS011;9828;54.122;17.974;2023-07-20T09:56:18;1.60;;;1.00;;
19384;SDS011;9828;54.122;17.974;2023-07-20T10:01:44;1.17;;;0.88;;
19384;SDS011;9828;54.122;17.974;2023-07-20T10:07:10;0.82;;;0.80;;
19384;SDS011;9828;54.122;17.974;2023-07-20T10:12:32;5.18;;;2.50;;
19384;SDS011;9828;54.122;17.974;2023-07-20T10:17:57;2.35;;;0.75;;
19384;SDS011;9828;54.122;17.974;2023-07-20T10:23:29;5.93;;;1.13;;
19384;SDS011;9828;54.122;17.974;2023-07-20T10:28:51;2.55;;;1.10;;
19384;SDS011;9828;54.122;17.974;2023-07-20T10:34:13;2.42;;;1.13;;
19384;SDS011;9828;54.122;17.974;2023-07-20T10:39:35;3.47;;;1.20;;
19384;SDS011;9828;54.122;17.974;2023-07-20T10:44:57;3.40;;;0.80;;
19384;SDS011;9828;54.122;17.974;2023-07-20T10:50:19;2.05;;;0.63;;
19384;SDS011;9828;54.122;17.974;2023-07-20T10:55:43;0.68;;;0.68;;
19384;SDS011;9828;54.122;17.974;2023-07-20T11:01:06;1.08;;;0.70;;
19384;SDS011;9828;54.122;17.974;2023-07-20T11:06:33;0.52;;;0.50;;
19384;SDS011;9828;54.122;17.974;2023-07-20T11:12:08;1.23;;;0.60;;
19384;SDS011;9828;54.122;17.974;2023-07-20T11:17:34;0.50;;;0.50;;
19384;SDS011;9828;54.122;17.974;2023-07-20T11:22:56;0.30;;;0.30;;
19384;SDS011;9828;54.122;17.974;2023-07-20T11:28:17;0.60;;;0.50;;
19384;SDS011;9828;54.122;17.974;2023-07-20T11:33:39;0.52;;;0.40;;
19384;SDS011;9828;54.122;17.974;2023-07-20T11:39:00;1.88;;;0.70;;
19384;SDS011;9828;54.122;17.974;2023-07-20T11:44:22;0.95;;;0.50;;
19384;SDS011;9828;54.122;17.974;2023-07-20T11:49:49;5.13;;;3.22;;
19384;SDS011;9828;54.122;17.974;2023-07-20T11:55:14;0.55;;;0.45;;
19384;SDS011;9828;54.122;17.974;2023-07-20T12:00:38;0.57;;;0.47;;
19384;SDS011;9828;54.122;17.974;2023-07-20T12:06:07;0.35;;;0.32;;
19384;SDS011;9828;54.122;17.974;2023-07-20T12:11:31;0.82;;;0.60;;
19384;SDS011;9828;54.122;17.974;2023-07-20T12:16:57;0.50;;;0.40;;
19384;SDS011;9828;54.122;17.974;2023-07-20T12:22:18;1.70;;;0.40;;
19384;SDS011;9828;54.122;17.974;2023-07-20T12:27:40;0.75;;;0.60;;
19384;SDS011;9828;54.122;17.974;2023-07-20T12:33:03;1.85;;;0.88;;
19384;SDS011;9828;54.122;17.974;2023-07-20T12:38:25;1.00;;;0.70;;
19384;SDS011;9828;54.122;17.974;2023-07-20T12:43:48;1.17;;;0.80;;
19384;SDS011;9828;54.122;17.974;2023-07-20T12:49:10;1.25;;;0.70;;
19384;SDS011;9828;54.122;17.974;2023-07-20T12:54:32;0.60;;;0.57;;
19384;SDS011;9828;54.122;17.974;2023-07-20T12:59:53;2.50;;;0.60;;
19384;SDS011;9828;54.122;17.974;2023-07-20T13:05:14;0.95;;;0.60;;
19384;SDS011;9828;54.122;17.974;2023-07-20T13:10:38;0.70;;;0.63;;
19384;SDS011;9828;54.122;17.974;2023-07-20T13:15:59;1.13;;;0.60;;
19384;SDS011;9828;54.122;17.974;2023-07-20T13:21:20;0.68;;;0.60;;
19384;SDS011;9828;54.122;17.974;2023-07-20T13:26:44;1.85;;;0.80;;
19384;SDS011;9828;54.122;17.974;2023-07-20T13:32:05;0.95;;;0.60;;
19384;SDS011;9828;54.122;17.974;2023-07-20T13:37:28;1.23;;;0.88;;
19384;SDS011;9828;54.122;17.974;2023-07-20T13:42:49;0.85;;;0.70;;
19384;SDS011;9828;54.122;17.974;2023-07-20T13:48:10;5.00;;;0.80;;
19384;SDS011;9828;54.122;17.974;2023-07-20T13:53:32;2.53;;;0.68;;
19384;SDS011;9828;54.122;17.974;2023-07-20T13:58:57;0.73;;;0.60;;
19384;SDS011;9828;54.122;17.974;2023-07-20T14:04:18;2.60;;;0.75;;
19384;SDS011;9828;54.122;17.974;2023-07-20T14:09:39;1.70;;;0.70;;
19384;SDS011;9828;54.122;17.974;2023-07-20T14:15:21;5.20;;;0.63;;
19384;SDS011;9828;54.122;17.974;2023-07-20T14:20:42;0.68;;;0.60;;
19384;SDS011;9828;54.122;17.974;2023-07-20T14:26:04;6.47;;;1.00;;
19384;SDS011;9828;54.122;17.974;2023-07-20T14:31:26;3.58;;;1.00;;
19384;SDS011;9828;54.122;17.974;2023-07-20T14:36:47;1.38;;;0.70;;
19384;SDS011;9828;54.122;17.974;2023-07-20T14:42:10;0.95;;;0.50;;
19384;SDS011;9828;54.122;17.974;2023-07-20T14:47:31;1.27;;;0.60;;
19384;SDS011;9828;54.122;17.974;2023-07-20T14:52:55;0.43;;;0.43;;
19384;SDS011;9828;54.122;17.974;2023-07-20T14:58:16;2.67;;;0.93;;
19384;SDS011;9828;54.122;17.974;2023-07-20T15:03:38;0.65;;;0.47;;
19384;SDS011;9828;54.122;17.974;2023-07-20T15:08:59;0.93;;;0.50;;
19384;SDS011;9828;54.122;17.974;2023-07-20T15:14:21;3.58;;;0.57;;
19384;SDS011;9828;54.122;17.974;2023-07-20T15:19:42;0.80;;;0.60;;
19384;SDS011;9828;54.122;17.974;2023-07-20T15:25:05;0.68;;;0.57;;
19384;SDS011;9828;54.122;17.974;2023-07-20T15:30:27;2.13;;;0.70;;
19384;SDS011;9828;54.122;17.974;2023-07-20T15:35:52;0.50;;;0.50;;
19384;SDS011;9828;54.122;17.974;2023-07-20T15:41:13;1.73;;;0.60;;
19384;SDS011;9828;54.122;17.974;2023-07-20T15:51:59;1.00;;;0.80;;
19384;SDS011;9828;54.122;17.974;2023-07-20T15:57:21;1.15;;;0.70;;
19384;SDS011;9828;54.122;17.974;2023-07-20T16:02:42;0.77;;;0.60;;
19384;SDS011;9828;54.122;17.974;2023-07-20T16:08:04;1.25;;;0.60;;
19384;SDS011;9828;54.122;17.974;2023-07-20T16:13:26;1.30;;;0.80;;
19384;SDS011;9828;54.122;17.974;2023-07-20T16:18:50;1.50;;;0.60;;
19384;SDS011;9828;54.122;17.974;2023-07-20T16:24:11;1.77;;;0.93;;
19384;SDS011;9828;54.122;17.974;2023-07-20T16:29:34;1.98;;;0.82;;
19384;SDS011;9828;54.122;17.974;2023-07-20T16:34:55;3.60;;;0.82;;
19384;SDS011;9828;54.122;17.974;2023-07-20T16:40:29;1.50;;;0.98;;
19384;SDS011;9828;54.122;17.974;2023-07-20T16:45:57;1.90;;;1.45;;
19384;SDS011;9828;54.122;17.974;2023-07-20T16:51:43;1.10;;;0.95;;
19384;SDS011;9828;54.122;17.974;2023-07-20T16:57:04;2.10;;;0.90;;
19384;SDS011;9828;54.122;17.974;2023-07-20T17:02:26;1.90;;;1.10;;
19384;SDS011;9828;54.122;17.974;2023-07-20T17:07:48;4.07;;;1.10;;
19384;SDS011;9828;54.122;17.974;2023-07-20T17:13:15;1.23;;;0.80;;
19384;SDS011;9828;54.122;17.974;2023-07-20T17:18:37;1.52;;;1.08;;
19384;SDS011;9828;54.122;17.974;2023-07-20T17:23:58;3.95;;;1.42;;
19384;SDS011;9828;54.122;17.974;2023-07-20T17:29:20;2.97;;;0.93;;
19384;SDS011;9828;54.122;17.974;2023-07-20T17:34:42;1.42;;;0.85;;
19384;SDS011;9828;54.122;17.974;2023-07-20T17:40:07;2.47;;;1.00;;
19384;SDS011;9828;54.122;17.974;2023-07-20T17:45:35;1.55;;;1.10;;
19384;SDS011;9828;54.122;17.974;2023-07-20T17:50:59;2.33;;;1.20;;
19384;SDS011;9828;54.122;17.974;2023-07-20T17:56:20;1.30;;;0.98;;
19384;SDS011;9828;54.122;17.974;2023-07-20T18:01:41;2.08;;;1.00;;
19384;SDS011;9828;54.122;17.974;2023-07-20T18:07:04;1.15;;;1.00;;
19384;SDS011;9828;54.122;17.974;2023-07-20T18:12:27;2.83;;;1.35;;
19384;SDS011;9828;54.122;17.974;2023-07-20T18:17:48;1.33;;;1.00;;
19384;SDS011;9828;54.122;17.974;2023-07-20T18:23:10;1.40;;;0.80;;
19384;SDS011;9828;54.122;17.974;2023-07-20T18:28:31;2.20;;;1.10;;
19384;SDS011;9828;54.122;17.974;2023-07-20T18:33:52;2.55;;;1.38;;
19384;SDS011;9828;54.122;17.974;2023-07-20T18:39:15;2.03;;;1.20;;
19384;SDS011;9828;54.122;17.974;2023-07-20T18:44:36;2.33;;;1.20;;
19384;SDS011;9828;54.122;17.974;2023-07-20T18:49:57;2.53;;;1.30;;
19384;SDS011;9828;54.122;17.974;2023-07-20T18:55:19;3.92;;;1.42;;
19384;SDS011;9828;54.122;17.974;2023-07-20T19:00:40;3.65;;;1.50;;
19384;SDS011;9828;54.122;17.974;2023-07-20T19:06:01;2.20;;;1.23;;
19384;SDS011;9828;54.122;17.974;2023-07-20T19:11:23;2.22;;;1.00;;
19384;SDS011;9828;54.122;17.974;2023-07-20T19:16:48;2.28;;;1.17;;
19384;SDS011;9828;54.122;17.974;2023-07-20T19:22:09;3.45;;;1.20;;
19384;SDS011;9828;54.122;17.974;2023-07-20T19:27:30;2.92;;;1.35;;
19384;SDS011;9828;54.122;17.974;2023-07-20T19:32:51;3.75;;;1.30;;
19384;SDS011;9828;54.122;17.974;2023-07-20T19:38:13;1.75;;;1.23;;
19384;SDS011;9828;54.122;17.974;2023-07-20T19:43:46;1.30;;;1.20;;
19384;SDS011;9828;54.122;17.974;2023-07-20T19:49:07;3.63;;;1.52;;
19384;SDS011;9828;54.122;17.974;2023-07-20T19:54:29;2.97;;;2.10;;
19384;SDS011;9828;54.122;17.974;2023-07-20T19:59:50;3.72;;;1.83;;
19384;SDS011;9828;54.122;17.974;2023-07-20T20:05:12;2.22;;;1.20;;
19384;SDS011;9828;54.122;17.974;2023-07-20T20:10:35;3.70;;;1.50;;
19384;SDS011;9828;54.122;17.974;2023-07-20T20:16:01;3.08;;;1.50;;
19384;SDS011;9828;54.122;17.974;2023-07-20T20:21:25;4.30;;;1.92;;
19384;SDS011;9828;54.122;17.974;2023-07-20T20:26:46;3.20;;;1.65;;
19384;SDS011;9828;54.122;17.974;2023-07-20T20:32:08;2.83;;;1.42;;
19384;SDS011;9828;54.122;17.974;2023-07-20T20:37:31;5.88;;;1.40;;
19384;SDS011;9828;54.122;17.974;2023-07-20T20:42:52;3.33;;;1.42;;
19384;SDS011;9828;54.122;17.974;2023-07-20T20:48:13;2.83;;;1.50;;
19384;SDS011;9828;54.122;17.974;2023-07-20T20:53:35;6.05;;;1.42;;
19384;SDS011;9828;54.122;17.974;2023-07-20T20:58:56;2.35;;;1.45;;
19384;SDS011;9828;54.122;17.974;2023-07-20T21:04:17;5.28;;;1.80;;
19384;SDS011;9828;54.122;17.974;2023-07-20T21:09:42;4.15;;;1.55;;
19384;SDS011;9828;54.122;17.974;2023-07-20T21:15:04;4.05;;;1.48;;
19384;SDS011;9828;54.122;17.974;2023-07-20T21:20:27;1.88;;;1.27;;
19384;SDS011;9828;54.122;17.974;2023-07-20T21:25:48;4.05;;;1.75;;
19384;SDS011;9828;54.122;17.974;2023-07-20T21:31:09;5.55;;;1.67;;
19384;SDS011;9828;54.122;17.974;2023-07-20T21:36:31;4.95;;;1.85;;
19384;SDS011;9828;54.122;17.974;2023-07-20T21:41:53;4.25;;;2.00;;
19384;SDS011;9828;54.122;17.974;2023-07-20T21:47:14;3.40;;;1.42;;
19384;SDS011;9828;54.122;17.974;2023-07-20T21:52:35;3.00;;;1.55;;
19384;SDS011;9828;54.122;17.974;2023-07-20T21:57:56;6.18;;;2.05;;
19384;SDS011;9828;54.122;17.974;2023-07-20T22:03:18;5.60;;;2.03;;
19384;SDS011;9828;54.122;17.974;2023-07-20T22:08:42;3.88;;;1.77;;
19384;SDS011;9828;54.122;17.974;2023-07-20T22:14:04;4.53;;;2.80;;
19384;SDS011;9828;54.122;17.974;2023-07-20T22:19:25;6.40;;;2.92;;
19384;SDS011;9828;54.122;17.974;2023-07-20T22:24:47;6.63;;;2.90;;
19384;SDS011;9828;54.122;17.974;2023-07-20T22:30:09;5.35;;;2.20;;
19384;SDS011;9828;54.122;17.974;2023-07-20T22:35:33;4.03;;;1.80;;
19384;SDS011;9828;54.122;17.974;2023-07-20T22:40:54;8.02;;;2.67;;
19384;SDS011;9828;54.122;17.974;2023-07-20T22:46:15;6.03;;;2.42;;
19384;SDS011;9828;54.122;17.974;2023-07-20T22:51:37;4.85;;;2.28;;
19384;SDS011;9828;54.122;17.974;2023-07-20T22:56:59;6.82;;;3.25;;
19384;SDS011;9828;54.122;17.974;2023-07-20T23:02:20;10.48;;;4.85;;
19384;SDS011;9828;54.122;17.974;2023-07-20T23:07:42;9.80;;;3.90;;
19384;SDS011;9828;54.122;17.974;2023-07-20T23:13:04;10.73;;;3.78;;
19384;SDS011;9828;54.122;17.974;2023-07-20T23:18:26;7.85;;;3.33;;
19384;SDS011;9828;54.122;17.974;2023-07-20T23:23:47;10.38;;;2.63;;
19384;SDS011;9828;54.122;17.974;2023-07-20T23:29:10;4.82;;;2.30;;
19384;SDS011;9828;54.122;17.974;2023-07-20T23:34:31;2.90;;;1.50;;
19384;SDS011;9828;54.122;17.974;2023-07-20T23:39:55;4.95;;;1.88;;
19384;SDS011;9828;54.122;17.974;2023-07-20T23:45:16;3.03;;;1.55;;
19384;SDS011;9828;54.122;17.974;2023-07-20T23:50:41;3.70;;;1.38;;
19384;SDS011;9828;54.122;17.974;2023-07-20T23:56:05;1.92;;;1.23;;
